createdAt,value
2022-08-07T00:01:44.256Z,21.05
2022-08-07T00:04:18.497Z,21.36
2022-08-07T00:06:52.543Z,21.33
2022-08-07T00:09:22.789Z,21.20
2022-08-07T00:11:56.179Z,21.29
2022-08-07T00:14:30.312Z,20.90
2022-08-07T00:16:58.859Z,21.19
2022-08-07T00:20:00.481Z,21.47
2022-08-07T00:22:24.441Z,21.56
2022-08-07T00:25:16.617Z,21.62
2022-08-07T00:27:52.927Z,21.53
2022-08-07T00:30:27.075Z,21.44
2022-08-07T00:32:56.317Z,21.09
2022-08-07T00:35:24.395Z,21.27
2022-08-07T00:37:52.350Z,20.92
2022-08-07T00:40:38.987Z,21.39
2022-08-07T00:43:59.235Z,21.23
2022-08-07T00:46:04.821Z,21.24
2022-08-07T00:48:35.656Z,21.17
2022-08-07T00:51:13.028Z,21.35
2022-08-07T00:53:50.096Z,21.20
2022-08-07T00:56:20.004Z,21.12
2022-08-07T00:58:49.666Z,21.02
2022-08-07T01:01:18.856Z,21.14
2022-08-07T01:03:55.928Z,20.91
2022-08-07T01:06:31.743Z,21.02
2022-08-07T01:09:02.998Z,20.82
2022-08-07T01:12:09.677Z,20.68
2022-08-07T01:14:28.397Z,20.82
2022-08-07T01:16:57.092Z,20.74
2022-08-07T01:19:25.307Z,20.46
2022-08-07T01:22:00.416Z,20.43
2022-08-07T01:24:31.181Z,20.13
2022-08-07T01:27:05.265Z,20.02
2022-08-07T01:29:47.893Z,19.68
2022-08-07T01:32:18.397Z,19.40
2022-08-07T01:34:49.335Z,19.17
2022-08-07T01:37:20.477Z,19.05
2022-08-07T01:39:51.147Z,19.26
2022-08-07T01:42:38.114Z,19.26
2022-08-07T01:45:16.077Z,19.25
2022-08-07T01:48:29.400Z,19.24
2022-08-07T01:50:34.825Z,19.10
2022-08-07T01:53:08.507Z,18.86
2022-08-07T01:55:38.211Z,18.67
2022-08-07T01:58:29.499Z,18.86
2022-08-07T02:01:10.307Z,19.12
2022-08-07T02:03:50.955Z,19.13
2022-08-07T02:06:32.151Z,19.15
2022-08-07T02:09:04.310Z,19.00
2022-08-07T02:12:02.994Z,18.77
2022-08-07T02:14:36.130Z,18.70
2022-08-07T02:17:04.601Z,18.64
2022-08-07T02:20:07.016Z,18.59
2022-08-07T02:22:21.941Z,18.57
2022-08-07T02:24:56.318Z,18.65
2022-08-07T02:27:34.588Z,18.65
2022-08-07T02:30:16.842Z,18.69
2022-08-07T02:33:08.885Z,18.48
2022-08-07T02:36:29.913Z,18.34
2022-08-07T02:38:31.695Z,18.36
2022-08-07T02:41:04.041Z,18.31
2022-08-07T02:43:32.277Z,18.24
2022-08-07T02:46:02.525Z,18.08
2022-08-07T02:48:30.827Z,18.10
2022-08-07T02:50:58.759Z,18.28
2022-08-07T02:53:31.191Z,18.36
2022-08-07T02:56:17.359Z,18.69
2022-08-07T02:58:46.987Z,18.75
2022-08-07T03:01:19.142Z,18.94
2022-08-07T03:04:07.080Z,18.72
2022-08-07T03:06:46.005Z,18.63
2022-08-07T03:09:42.434Z,18.65
2022-08-07T03:12:08.109Z,18.47
2022-08-07T03:14:52.119Z,18.23
2022-08-07T03:17:22.042Z,18.17
2022-08-07T03:19:55.136Z,18.24
2022-08-07T03:22:24.078Z,18.29
2022-08-07T03:25:03.183Z,18.30
2022-08-07T03:28:08.848Z,18.48
2022-08-07T03:30:20.610Z,18.55
2022-08-07T03:32:58.634Z,18.25
2022-08-07T03:35:44.008Z,18.12
2022-08-07T03:38:21.450Z,17.92
2022-08-07T03:40:57.875Z,18.07
2022-08-07T03:43:32.307Z,18.23
2022-08-07T03:46:04.510Z,18.51
2022-08-07T03:49:02.462Z,18.44
2022-08-07T03:51:47.819Z,18.29
2022-08-07T03:54:35.221Z,18.30
2022-08-07T03:57:08.626Z,18.21
2022-08-07T03:59:46.799Z,18.10
2022-08-07T04:02:28.091Z,18.24
2022-08-07T04:04:56.262Z,18.34
2022-08-07T04:07:25.679Z,18.56
2022-08-07T04:10:04.193Z,18.77
2022-08-07T04:12:35.240Z,18.83
2022-08-07T04:15:08.899Z,18.90
2022-08-07T04:18:31.917Z,19.16
2022-08-07T04:20:28.775Z,19.18
2022-08-07T04:23:10.349Z,19.21
2022-08-07T04:25:47.338Z,19.23
2022-08-07T04:28:17.170Z,20.23
2022-08-07T04:30:55.294Z,21.11
2022-08-07T04:33:25.541Z,21.55
2022-08-07T04:35:54.148Z,21.15
2022-08-07T04:38:23.258Z,21.42
2022-08-07T04:40:51.625Z,20.90
2022-08-07T04:43:21.989Z,20.08
2022-08-07T04:46:12.478Z,20.26
2022-08-07T04:48:55.958Z,20.00
2022-08-07T04:51:27.676Z,20.02
2022-08-07T04:54:05.348Z,19.86
2022-08-07T04:58:11.155Z,19.92
2022-08-07T05:00:09.695Z,19.85
2022-08-07T05:02:20.639Z,20.05
2022-08-07T05:04:50.707Z,20.08
2022-08-07T05:07:21.131Z,20.00
2022-08-07T05:09:58.330Z,20.05
2022-08-07T05:12:30.342Z,20.12
2022-08-07T05:15:04.881Z,20.29
2022-08-07T05:17:53.024Z,20.25
2022-08-07T05:20:35.682Z,20.18
2022-08-07T05:23:15.647Z,20.04
2022-08-07T05:26:11.897Z,19.81
2022-08-07T05:28:33.288Z,19.92
2022-08-07T05:31:01.246Z,20.05
2022-08-07T05:33:35.539Z,20.21
2022-08-07T05:36:04.746Z,20.24
2022-08-07T05:39:00.907Z,20.08
2022-08-07T05:42:00.567Z,20.29
2022-08-07T05:44:29.306Z,20.41
2022-08-07T05:46:57.451Z,20.62
2022-08-07T05:49:40.408Z,20.64
2022-08-07T05:52:11.760Z,20.52
2022-08-07T05:54:44.546Z,20.21
2022-08-07T05:57:23.646Z,20.43
2022-08-07T05:59:57.984Z,20.75
2022-08-07T06:02:29.037Z,20.70
2022-08-07T06:05:01.849Z,20.60
2022-08-07T06:08:13.049Z,20.40
2022-08-07T06:10:20.431Z,20.75
2022-08-07T06:12:48.302Z,21.09
2022-08-07T06:15:16.402Z,20.97
2022-08-07T06:17:53.354Z,21.18
2022-08-07T06:20:25.375Z,21.26
2022-08-07T06:23:24.846Z,20.92
2022-08-07T06:25:54.431Z,21.01
2022-08-07T06:28:28.181Z,20.82
2022-08-07T06:30:56.247Z,20.61
2022-08-07T06:33:25.824Z,20.69
2022-08-07T06:36:13.415Z,20.53
2022-08-07T06:38:59.198Z,21.04
2022-08-07T06:42:02.655Z,20.56
2022-08-07T06:44:22.725Z,20.78
2022-08-07T06:47:10.126Z,21.14
2022-08-07T06:49:51.752Z,21.23
2022-08-07T06:52:31.942Z,20.65
2022-08-07T06:55:32.878Z,20.56
2022-08-07T06:57:54.939Z,20.89
2022-08-07T07:00:25.285Z,21.37
2022-08-07T07:02:57.764Z,21.28
2022-08-07T07:06:05.708Z,21.26
2022-08-07T07:08:26.499Z,21.51
2022-08-07T07:11:00.947Z,21.47
2022-08-07T07:13:55.536Z,21.52
2022-08-07T07:16:20.815Z,21.85
2022-08-07T07:18:50.039Z,21.81
2022-08-07T07:21:20.014Z,21.31
2022-08-07T07:24:09.519Z,21.47
2022-08-07T07:26:37.952Z,21.60
2022-08-07T07:29:56.317Z,21.77
2022-08-07T07:31:59.974Z,22.06
2022-08-07T07:34:30.843Z,21.70
2022-08-07T07:37:14.472Z,21.29
2022-08-07T07:39:55.669Z,21.43
2022-08-07T07:42:25.918Z,21.46
2022-08-07T07:45:01.924Z,21.89
2022-08-07T07:47:30.101Z,21.89
2022-08-07T07:50:35.392Z,21.80
2022-08-07T07:53:01.767Z,21.92
2022-08-07T07:55:37.576Z,22.41
2022-08-07T07:58:13.342Z,22.15
2022-08-07T08:00:45.718Z,22.47
2022-08-07T08:04:05.963Z,21.29
2022-08-07T08:06:07.800Z,22.18
2022-08-07T08:08:41.779Z,22.38
2022-08-07T08:11:16.468Z,22.28
2022-08-07T08:13:59.009Z,21.90
2022-08-07T08:16:29.610Z,22.02
2022-08-07T08:20:17.774Z,22.27
2022-08-07T08:22:23.322Z,22.32
2022-08-07T08:25:25.046Z,22.25
2022-08-07T08:28:04.068Z,22.54
2022-08-07T08:30:34.877Z,23.02
2022-08-07T08:33:05.516Z,23.26
2022-08-07T08:35:47.168Z,22.89
2022-08-07T08:38:18.543Z,23.16
2022-08-07T08:40:52.975Z,23.03
2022-08-07T08:43:31.984Z,22.64
2022-08-07T08:46:10.816Z,23.00
2022-08-07T08:48:42.668Z,22.96
2022-08-07T08:51:14.769Z,23.00
2022-08-07T08:53:58.099Z,23.43
2022-08-07T08:56:29.635Z,23.45
2022-08-07T08:59:06.547Z,23.53
2022-08-07T09:01:49.193Z,23.15
2022-08-07T09:04:25.774Z,23.07
2022-08-07T09:06:57.373Z,23.21
2022-08-07T09:09:44.041Z,23.34
2022-08-07T09:12:30.133Z,23.16
2022-08-07T09:16:23.995Z,23.12
2022-08-07T09:17:59.488Z,23.28
2022-08-07T09:20:35.391Z,23.73
2022-08-07T09:24:35.041Z,23.59
2022-08-07T09:25:56.465Z,23.54
2022-08-07T09:30:05.007Z,23.26
2022-08-07T09:31:17.244Z,23.59
2022-08-07T09:33:57.724Z,23.37
2022-08-07T09:36:26.900Z,23.38
2022-08-07T09:39:00.199Z,23.50
2022-08-07T09:42:02.921Z,23.67
2022-08-07T09:47:24.873Z,23.66
2022-08-07T09:48:00.352Z,23.92
2022-08-07T09:50:32.477Z,24.16
2022-08-07T09:53:02.061Z,23.88
2022-08-07T09:56:02.831Z,24.25
2022-08-07T09:58:32.587Z,23.83
2022-08-07T10:01:08.510Z,23.87
2022-08-07T10:04:05.294Z,23.63
2022-08-07T10:06:55.777Z,24.04
2022-08-07T10:10:00.292Z,24.67
2022-08-07T10:12:45.898Z,24.71
2022-08-07T10:15:27.398Z,24.40
2022-08-07T10:18:09.716Z,24.38
2022-08-07T10:20:51.610Z,24.65
2022-08-07T10:24:05.993Z,24.64
2022-08-07T10:26:28.243Z,24.39
2022-08-07T10:29:02.619Z,24.96
2022-08-07T10:31:39.615Z,24.72
2022-08-07T10:34:15.764Z,24.76
2022-08-07T10:36:53.885Z,24.83
2022-08-07T10:39:42.162Z,24.65
2022-08-07T10:42:30.955Z,24.75
2022-08-07T10:45:03.192Z,24.73
2022-08-07T10:47:53.749Z,24.68
2022-08-07T10:50:25.913Z,25.03
2022-08-07T10:52:57.013Z,25.33
2022-08-07T10:55:38.313Z,25.99
2022-08-07T10:58:17.754Z,25.75
2022-08-07T11:00:56.044Z,25.65
2022-08-07T11:03:28.125Z,26.00
2022-08-07T11:06:08.386Z,26.14
2022-08-07T11:08:44.371Z,26.17
2022-08-07T11:11:20.115Z,25.89
2022-08-07T11:14:43.719Z,25.98
2022-08-07T11:16:37.726Z,25.58
2022-08-07T11:19:06.817Z,25.82
2022-08-07T11:21:41.014Z,26.57
2022-08-07T11:24:13.720Z,26.02
2022-08-07T11:26:50.051Z,25.65
2022-08-07T11:29:40.860Z,25.51
2022-08-07T11:32:09.764Z,26.02
2022-08-07T11:34:42.354Z,26.30
2022-08-07T11:37:13.044Z,26.47
2022-08-07T11:39:59.024Z,26.20
2022-08-07T11:42:36.719Z,25.88
2022-08-07T11:45:12.475Z,26.59
2022-08-07T11:47:56.517Z,25.98
2022-08-07T11:50:35.245Z,26.06
2022-08-07T11:53:08.579Z,26.80
2022-08-07T11:56:25.508Z,26.93
2022-08-07T11:58:33.564Z,27.06
2022-08-07T12:01:05.132Z,27.00
2022-08-07T12:03:49.243Z,27.40
2022-08-07T12:06:37.972Z,27.01
2022-08-07T12:09:09.089Z,27.01
2022-08-07T12:12:09.383Z,27.06
2022-08-07T12:14:40.645Z,27.06
2022-08-07T12:17:09.766Z,27.90
2022-08-07T12:20:03.244Z,28.35
2022-08-07T12:22:55.951Z,27.98
2022-08-07T12:26:03.337Z,28.36
2022-08-07T12:28:37.665Z,28.13
2022-08-07T12:31:17.193Z,27.30
2022-08-07T12:34:01.305Z,27.66
2022-08-07T12:36:35.784Z,28.17
2022-08-07T12:39:41.967Z,28.83
2022-08-07T12:41:52.501Z,28.37
2022-08-07T12:44:23.360Z,28.87
2022-08-07T12:46:56.555Z,28.27
2022-08-07T12:49:44.720Z,29.02
2022-08-07T12:52:18.026Z,28.59
2022-08-07T12:54:54.607Z,28.33
2022-08-07T12:57:39.217Z,28.35
2022-08-07T13:00:32.494Z,28.55
2022-08-07T13:03:17.046Z,29.25
2022-08-07T13:06:04.082Z,28.67
2022-08-07T13:08:39.587Z,28.48
2022-08-07T13:11:10.422Z,29.17
2022-08-07T13:13:52.323Z,29.37
2022-08-07T13:16:26.155Z,29.34
2022-08-07T13:18:59.114Z,28.53
2022-08-07T13:21:37.202Z,28.19
2022-08-07T13:24:20.358Z,28.48
2022-08-07T13:26:55.778Z,28.95
2022-08-07T13:29:26.303Z,29.10
2022-08-07T13:32:23.745Z,29.22
2022-08-07T13:34:54.492Z,30.34
2022-08-07T13:37:28.399Z,30.33
2022-08-07T13:40:35.914Z,30.14
2022-08-07T13:43:05.804Z,29.50
2022-08-07T13:46:20.895Z,29.33
2022-08-07T13:48:38.699Z,28.30
2022-08-07T13:51:28.446Z,28.56
2022-08-07T13:54:00.781Z,29.56
2022-08-07T13:56:35.790Z,29.38
2022-08-07T13:59:12.778Z,30.51
2022-08-07T14:01:51.563Z,31.25
2022-08-07T14:04:35.778Z,30.56
2022-08-07T14:07:09.493Z,30.68
2022-08-07T14:10:03.015Z,29.68
2022-08-07T14:12:31.269Z,29.55
2022-08-07T14:15:12.910Z,29.83
2022-08-07T14:18:24.420Z,30.72
2022-08-07T14:20:40.658Z,29.85
2022-08-07T14:23:12.905Z,29.41
2022-08-07T14:25:48.020Z,29.81
2022-08-07T14:28:16.173Z,30.17
2022-08-07T14:30:47.291Z,30.25
2022-08-07T14:33:22.282Z,30.12
2022-08-07T14:35:55.894Z,29.86
2022-08-07T14:38:30.831Z,29.69
2022-08-07T14:43:57.811Z,29.95
2022-08-07T14:46:32.063Z,30.04
2022-08-07T14:49:55.585Z,30.97
2022-08-07T14:52:04.771Z,30.99
2022-08-07T14:54:41.720Z,30.81
2022-08-07T14:57:11.621Z,30.98
2022-08-07T15:00:05.540Z,30.48
2022-08-07T15:02:35.219Z,29.75
2022-08-07T15:05:04.963Z,29.87
2022-08-07T15:07:51.043Z,29.89
2022-08-07T15:10:26.486Z,30.13
2022-08-07T15:13:01.458Z,30.79
2022-08-07T15:15:38.422Z,31.39
2022-08-07T15:18:14.114Z,31.75
2022-08-07T15:20:58.499Z,31.95
2022-08-07T15:26:28.681Z,29.74
2022-08-07T15:28:59.475Z,29.22
2022-08-07T15:34:34.816Z,29.79
2022-08-07T15:37:06.889Z,29.64
2022-08-07T15:45:55.972Z,29.83
2022-08-07T15:48:25.769Z,30.34
2022-08-07T15:51:08.104Z,29.97
2022-08-07T15:53:52.417Z,30.20
2022-08-07T15:56:29.477Z,30.24
2022-08-07T15:59:03.069Z,30.18
2022-08-07T16:01:38.738Z,29.72
2022-08-07T16:04:14.921Z,29.76
2022-08-07T16:06:44.565Z,29.92
2022-08-07T16:09:22.347Z,29.14
2022-08-07T16:12:06.070Z,29.60
2022-08-07T16:14:53.205Z,29.60
2022-08-07T16:18:02.393Z,29.55
2022-08-07T16:20:33.121Z,29.10
2022-08-07T16:23:53.053Z,29.35
2022-08-07T16:26:14.491Z,28.92
2022-08-07T16:30:07.833Z,28.85
2022-08-07T16:31:50.821Z,28.92
2022-08-07T16:34:27.500Z,28.77
2022-08-07T16:38:06.869Z,28.68
2022-08-07T16:40:28.188Z,28.38
2022-08-07T16:43:00.900Z,28.42
2022-08-07T16:46:33.755Z,28.17
2022-08-07T16:49:04.026Z,28.39
2022-08-07T16:51:54.380Z,28.47
2022-08-07T16:54:33.186Z,28.60
2022-08-07T16:57:15.519Z,28.32
2022-08-07T16:59:47.423Z,28.39
2022-08-07T17:02:52.170Z,28.40
2022-08-07T17:06:01.755Z,28.39
2022-08-07T17:08:21.251Z,28.36
2022-08-07T17:10:55.600Z,28.21
2022-08-07T17:13:41.722Z,27.98
2022-08-07T17:16:25.084Z,27.78
2022-08-07T17:18:59.984Z,27.80
2022-08-07T17:21:50.593Z,27.83
2022-08-07T17:24:26.628Z,27.64
2022-08-07T17:26:59.323Z,27.38
2022-08-07T17:30:14.632Z,27.74
2022-08-07T17:32:30.772Z,27.99
2022-08-07T17:35:49.786Z,28.03
2022-08-07T17:38:11.315Z,27.69
2022-08-07T17:40:50.398Z,27.43
2022-08-07T17:43:19.450Z,27.66
2022-08-07T17:46:11.543Z,27.29
2022-08-07T17:48:41.369Z,27.15
2022-08-07T17:51:12.929Z,27.15
2022-08-07T17:54:00.983Z,27.24
2022-08-07T17:56:30.598Z,27.46
2022-08-07T17:59:02.998Z,27.29
2022-08-07T18:01:38.246Z,27.46
2022-08-07T18:04:16.504Z,27.48
2022-08-07T18:06:58.046Z,27.23
2022-08-07T18:09:48.333Z,26.72
2022-08-07T18:12:30.153Z,26.61
2022-08-07T18:15:00.865Z,26.46
2022-08-07T18:18:47.543Z,26.45
2022-08-07T18:21:08.367Z,26.62
2022-08-07T18:23:21.882Z,26.59
2022-08-07T18:26:03.321Z,26.46
2022-08-07T18:28:57.735Z,26.23
2022-08-07T18:31:33.779Z,26.14
2022-08-07T18:34:40.925Z,26.04
2022-08-07T18:37:09.719Z,25.99
2022-08-07T18:40:06.785Z,26.15
2022-08-07T18:42:36.609Z,26.15
2022-08-07T18:45:44.659Z,26.23
2022-08-07T18:48:02.589Z,26.14
2022-08-07T18:50:44.104Z,26.12
2022-08-07T18:53:16.381Z,26.01
2022-08-07T18:55:57.208Z,25.75
2022-08-07T18:58:34.937Z,25.62
2022-08-07T19:01:05.680Z,25.66
2022-08-07T19:03:37.626Z,25.68
2022-08-07T19:06:07.029Z,25.58
2022-08-07T19:08:39.203Z,25.67
2022-08-07T19:11:35.764Z,25.58
2022-08-07T19:14:17.124Z,25.41
2022-08-07T19:17:07.046Z,25.33
2022-08-07T19:19:42.638Z,25.23
2022-08-07T19:22:11.274Z,25.14
2022-08-07T19:24:48.066Z,25.01
2022-08-07T19:28:29.232Z,25.00
2022-08-07T19:31:00.690Z,25.08
2022-08-07T19:33:10.279Z,25.17
2022-08-07T19:35:41.249Z,25.16
2022-08-07T19:38:16.640Z,25.15
2022-08-07T19:40:49.666Z,25.12
2022-08-07T19:43:21.936Z,25.17
2022-08-07T19:46:14.623Z,25.15
2022-08-07T19:48:53.729Z,24.88
2022-08-07T19:51:50.946Z,24.94
2022-08-07T19:54:33.986Z,24.86
2022-08-07T19:58:00.564Z,24.76
2022-08-07T19:59:54.299Z,24.84
2022-08-07T20:02:29.122Z,24.99
2022-08-07T20:04:57.046Z,24.87
2022-08-07T20:07:45.820Z,24.74
2022-08-07T20:10:35.780Z,24.81
2022-08-07T20:13:06.138Z,24.81
2022-08-07T20:15:37.220Z,24.77
2022-08-07T20:18:17.998Z,24.62
2022-08-07T20:20:47.171Z,24.70
2022-08-07T20:23:32.982Z,24.47
2022-08-07T20:26:09.798Z,24.43
2022-08-07T20:28:40.023Z,24.53
2022-08-07T20:31:21.618Z,24.47
2022-08-07T20:33:57.325Z,24.20
2022-08-07T20:36:27.684Z,23.92
2022-08-07T20:39:00.877Z,24.06
2022-08-07T20:41:48.257Z,23.98
2022-08-07T20:44:15.904Z,24.00
2022-08-07T20:46:45.493Z,24.03
2022-08-07T20:50:01.125Z,24.04
2022-08-07T20:52:16.548Z,23.97
2022-08-07T20:54:45.655Z,23.84
2022-08-07T20:57:22.294Z,23.84
2022-08-07T21:00:06.404Z,23.89
2022-08-07T21:02:57.642Z,23.89
2022-08-07T21:05:51.517Z,23.79
2022-08-07T21:08:19.906Z,23.91
2022-08-07T21:11:03.993Z,23.76
2022-08-07T21:13:43.839Z,23.72
2022-08-07T21:16:20.303Z,23.97
2022-08-07T21:18:53.237Z,24.05
2022-08-07T21:21:27.070Z,23.72
2022-08-07T21:23:57.751Z,23.99
2022-08-07T21:26:30.844Z,23.96
2022-08-07T21:28:59.598Z,23.85
2022-08-07T21:32:42.523Z,23.79
2022-08-07T21:34:32.181Z,23.66
2022-08-07T21:37:04.362Z,23.51
2022-08-07T21:39:47.587Z,23.63
2022-08-07T21:46:03.416Z,23.54
2022-08-07T21:48:06.547Z,23.68
2022-08-07T21:51:04.702Z,23.69
2022-08-07T21:53:46.560Z,23.60
2022-08-07T21:56:39.852Z,23.70
2022-08-07T21:59:12.058Z,23.84
2022-08-07T22:02:04.393Z,23.86
2022-08-07T22:04:33.153Z,24.00
2022-08-07T22:07:01.837Z,24.04
2022-08-07T22:09:37.937Z,23.94
2022-08-07T22:12:26.871Z,22.33
2022-08-07T22:15:01.314Z,23.92
2022-08-07T22:17:36.100Z,24.06
2022-08-07T22:20:07.028Z,24.08
2022-08-07T22:22:39.922Z,24.19
2022-08-07T22:25:17.262Z,24.14
2022-08-07T22:28:07.735Z,24.00
2022-08-07T22:30:36.752Z,23.74
2022-08-07T22:33:05.424Z,23.91
2022-08-07T22:35:40.606Z,23.72
2022-08-07T22:38:20.395Z,23.73
2022-08-07T22:40:54.348Z,23.93
2022-08-07T22:43:31.392Z,23.91
2022-08-07T22:46:56.023Z,23.73
2022-08-07T22:49:15.951Z,23.83
2022-08-07T22:52:03.329Z,23.91
2022-08-07T22:54:48.804Z,23.82
2022-08-07T22:57:25.974Z,23.77
2022-08-07T22:59:53.952Z,23.68
2022-08-07T23:02:32.246Z,23.66
2022-08-07T23:06:09.488Z,23.60
2022-08-07T23:08:04.830Z,23.28
2022-08-07T23:10:42.166Z,23.27
2022-08-07T23:13:29.463Z,23.20
2022-08-07T23:16:46.653Z,23.41
2022-08-07T23:19:47.875Z,23.47
2022-08-07T23:22:15.999Z,23.50
2022-08-07T23:24:47.696Z,23.18
2022-08-07T23:27:33.827Z,23.21
2022-08-07T23:30:39.126Z,23.33
2022-08-07T23:34:36.923Z,23.21
2022-08-07T23:35:56.782Z,23.09
2022-08-07T23:38:42.194Z,22.79
2022-08-07T23:41:16.755Z,22.86
2022-08-07T23:44:05.732Z,22.41
2022-08-07T23:46:55.279Z,22.35
2022-08-07T23:49:49.756Z,22.45
2022-08-07T23:53:01.714Z,22.44
2022-08-07T23:55:12.377Z,22.41
2022-08-07T23:58:00.604Z,21.86
